sensor_id;sensor_type;location;lat;lon;timestamp;pressure;altitude;pressure_sealevel;temperature;humidity
26711;BME280;18311;52.754;18.118;2022-12-18T00:02:14;102155.56;;;-0.68;100.00
26711;BME280;18311;52.754;18.118;2022-12-18T00:04:52;102156.53;;;-0.64;100.00
26711;BME280;18311;52.754;18.118;2022-12-18T00:07:22;102154.78;;;-0.64;100.00
26711;BME280;18311;52.754;18.118;2022-12-18T00:09:54;102163.30;;;-0.72;100.00
26711;BME280;18311;52.754;18.118;2022-12-18T00:12:25;102167.30;;;-0.55;100.00
26711;BME280;18311;52.754;18.118;2022-12-18T00:15:01;102171.48;;;-0.62;100.00
26711;BME280;18311;52.754;18.118;2022-12-18T00:17:31;102175.71;;;-0.67;100.00
26711;BME280;18311;52.754;18.118;2022-12-18T00:20:02;102175.03;;;-0.60;100.00
26711;BME280;18311;52.754;18.118;2022-12-18T00:22:33;102175.23;;;-0.53;100.00
26711;BME280;18311;52.754;18.118;2022-12-18T00:25:17;102173.76;;;-0.44;100.00
26711;BME280;18311;52.754;18.118;2022-12-18T00:27:47;102179.90;;;-0.43;100.00
26711;BME280;18311;52.754;18.118;2022-12-18T00:30:26;102165.83;;;-0.45;100.00
26711;BME280;18311;52.754;18.118;2022-12-18T00:32:57;102169.72;;;-0.31;100.00
26711;BME280;18311;52.754;18.118;2022-12-18T00:35:29;102170.41;;;-0.68;100.00
26711;BME280;18311;52.754;18.118;2022-12-18T00:37:59;102173.27;;;-0.29;100.00
26711;BME280;18311;52.754;18.118;2022-12-18T00:40:36;102176.50;;;-0.39;100.00
26711;BME280;18311;52.754;18.118;2022-12-18T00:43:07;102178.72;;;-0.23;100.00
26711;BME280;18311;52.754;18.118;2022-12-18T00:45:37;102180.62;;;-0.49;100.00
26711;BME280;18311;52.754;18.118;2022-12-18T00:48:08;102188.42;;;-0.52;100.00
26711;BME280;18311;52.754;18.118;2022-12-18T00:50:45;102190.61;;;-0.35;100.00
26711;BME280;18311;52.754;18.118;2022-12-18T00:53:17;102187.68;;;-0.14;100.00
26711;BME280;18311;52.754;18.118;2022-12-18T00:55:48;102198.06;;;-0.51;100.00
26711;BME280;18311;52.754;18.118;2022-12-18T00:58:27;102206.86;;;-0.50;100.00
26711;BME280;18311;52.754;18.118;2022-12-18T01:00:57;102210.56;;;-0.44;100.00
26711;BME280;18311;52.754;18.118;2022-12-18T01:03:28;102200.93;;;-0.43;100.00
26711;BME280;18311;52.754;18.118;2022-12-18T01:05:58;102197.96;;;-0.24;100.00
26711;BME280;18311;52.754;18.118;2022-12-18T01:08:36;102209.41;;;-0.22;100.00
26711;BME280;18311;52.754;18.118;2022-12-18T01:13:53;102222.45;;;-0.26;100.00
26711;BME280;18311;52.754;18.118;2022-12-18T01:16:24;102230.83;;;-0.08;100.00
26711;BME280;18311;52.754;18.118;2022-12-18T01:18:55;102228.69;;;-0.23;100.00
26711;BME280;18311;52.754;18.118;2022-12-18T01:21:30;102225.23;;;-0.20;100.00
26711;BME280;18311;52.754;18.118;2022-12-18T01:24:02;102216.31;;;-0.25;100.00
26711;BME280;18311;52.754;18.118;2022-12-18T01:26:33;102227.77;;;-0.23;100.00
26711;BME280;18311;52.754;18.118;2022-12-18T01:29:03;102235.89;;;-0.15;100.00
26711;BME280;18311;52.754;18.118;2022-12-18T01:31:40;102240.52;;;-0.37;100.00
26711;BME280;18311;52.754;18.118;2022-12-18T01:34:11;102243.59;;;-0.22;100.00
26711;BME280;18311;52.754;18.118;2022-12-18T01:36:41;102246.27;;;-0.20;100.00
26711;BME280;18311;52.754;18.118;2022-12-18T01:39:13;102237.41;;;-0.24;100.00
26711;BME280;18311;52.754;18.118;2022-12-18T01:41:47;102251.66;;;-0.46;100.00
26711;BME280;18311;52.754;18.118;2022-12-18T01:47:55;102247.83;;;-0.27;100.00
26711;BME280;18311;52.754;18.118;2022-12-18T01:50:37;102267.56;;;-0.11;100.00
26711;BME280;18311;52.754;18.118;2022-12-18T01:53:22;102269.49;;;-0.05;100.00
26711;BME280;18311;52.754;18.118;2022-12-18T01:55:59;102273.14;;;0.00;100.00
26711;BME280;18311;52.754;18.118;2022-12-18T01:58:50;102254.30;;;-0.15;100.00
26711;BME280;18311;52.754;18.118;2022-12-18T02:01:14;102258.78;;;-0.11;100.00
26711;BME280;18311;52.754;18.118;2022-12-18T02:06:31;102262.05;;;-0.20;100.00
26711;BME280;18311;52.754;18.118;2022-12-18T02:14:45;102266.72;;;-0.10;100.00
26711;BME280;18311;52.754;18.118;2022-12-18T02:17:47;102267.41;;;-0.17;100.00
26711;BME280;18311;52.754;18.118;2022-12-18T02:23:13;102270.66;;;-0.26;100.00
26711;BME280;18311;52.754;18.118;2022-12-18T02:28:34;102281.70;;;-0.37;100.00
26711;BME280;18311;52.754;18.118;2022-12-18T02:31:25;102281.86;;;-0.33;100.00
26711;BME280;18311;52.754;18.118;2022-12-18T02:34:02;102288.05;;;-0.31;100.00
26711;BME280;18311;52.754;18.118;2022-12-18T02:36:34;102283.76;;;-0.58;100.00
26711;BME280;18311;52.754;18.118;2022-12-18T02:39:11;102280.17;;;-0.60;100.00
26711;BME280;18311;52.754;18.118;2022-12-18T02:41:43;102286.39;;;-0.58;100.00
26711;BME280;18311;52.754;18.118;2022-12-18T02:44:14;102292.94;;;-0.43;100.00
26711;BME280;18311;52.754;18.118;2022-12-18T02:46:51;102289.64;;;-0.65;100.00
26711;BME280;18311;52.754;18.118;2022-12-18T02:55:37;102289.79;;;-0.31;100.00
26711;BME280;18311;52.754;18.118;2022-12-18T03:03:40;102306.91;;;-0.15;100.00
26711;BME280;18311;52.754;18.118;2022-12-18T03:06:37;102320.53;;;-0.29;100.00
26711;BME280;18311;52.754;18.118;2022-12-18T03:08:47;102316.97;;;-0.31;100.00
26711;BME280;18311;52.754;18.118;2022-12-18T03:11:27;102309.03;;;-0.32;100.00
26711;BME280;18311;52.754;18.118;2022-12-18T03:14:19;102304.34;;;-0.12;100.00
26711;BME280;18311;52.754;18.118;2022-12-18T03:16:53;102311.39;;;-0.11;100.00
26711;BME280;18311;52.754;18.118;2022-12-18T03:19:31;102322.11;;;-0.05;100.00
26711;BME280;18311;52.754;18.118;2022-12-18T03:22:04;102318.66;;;-0.03;100.00
26711;BME280;18311;52.754;18.118;2022-12-18T03:24:44;102328.30;;;-0.03;100.00
26711;BME280;18311;52.754;18.118;2022-12-18T03:27:18;102336.23;;;-0.02;100.00
26711;BME280;18311;52.754;18.118;2022-12-18T03:30:06;102327.31;;;-0.07;100.00
26711;BME280;18311;52.754;18.118;2022-12-18T03:35:43;102337.91;;;-0.34;100.00
26711;BME280;18311;52.754;18.118;2022-12-18T03:38:14;102342.59;;;-0.24;100.00
26711;BME280;18311;52.754;18.118;2022-12-18T03:46:20;102355.88;;;-0.48;100.00
26711;BME280;18311;52.754;18.118;2022-12-18T03:48:57;102365.03;;;-0.64;100.00
26711;BME280;18311;52.754;18.118;2022-12-18T03:51:39;102331.84;;;-0.54;100.00
26711;BME280;18311;52.754;18.118;2022-12-18T03:54:10;102331.84;;;-0.60;100.00
26711;BME280;18311;52.754;18.118;2022-12-18T03:56:50;102360.36;;;-0.45;100.00
26711;BME280;18311;52.754;18.118;2022-12-18T03:59:17;102368.42;;;-0.39;100.00
26711;BME280;18311;52.754;18.118;2022-12-18T04:01:53;102372.09;;;-0.34;100.00
26711;BME280;18311;52.754;18.118;2022-12-18T04:04:28;102366.50;;;-0.45;100.00
26711;BME280;18311;52.754;18.118;2022-12-18T04:07:08;102359.39;;;-0.47;100.00
26711;BME280;18311;52.754;18.118;2022-12-18T04:09:40;102369.89;;;-0.49;100.00
26711;BME280;18311;52.754;18.118;2022-12-18T04:12:24;102376.80;;;-0.52;100.00
26711;BME280;18311;52.754;18.118;2022-12-18T04:14:55;102376.37;;;-0.09;100.00
26711;BME280;18311;52.754;18.118;2022-12-18T04:17:26;102376.94;;;-0.19;100.00
26711;BME280;18311;52.754;18.118;2022-12-18T04:20:00;102388.73;;;-0.35;100.00
26711;BME280;18311;52.754;18.118;2022-12-18T04:22:31;102371.92;;;-0.40;100.00
26711;BME280;18311;52.754;18.118;2022-12-18T04:25:02;102371.92;;;-0.40;100.00
26711;BME280;18311;52.754;18.118;2022-12-18T04:27:33;102381.29;;;-0.48;100.00
26711;BME280;18311;52.754;18.118;2022-12-18T04:30:10;102384.85;;;-0.46;100.00
26711;BME280;18311;52.754;18.118;2022-12-18T04:32:41;102386.39;;;-0.53;100.00
26711;BME280;18311;52.754;18.118;2022-12-18T04:35:13;102396.69;;;-0.32;100.00
26711;BME280;18311;52.754;18.118;2022-12-18T04:37:43;102396.86;;;-0.54;100.00
26711;BME280;18311;52.754;18.118;2022-12-18T04:40:19;102401.52;;;-0.46;100.00
26711;BME280;18311;52.754;18.118;2022-12-18T04:42:50;102399.85;;;-0.44;100.00
26711;BME280;18311;52.754;18.118;2022-12-18T04:45:22;102398.00;;;-0.46;100.00
26711;BME280;18311;52.754;18.118;2022-12-18T04:47:52;102394.77;;;-0.65;100.00
26711;BME280;18311;52.754;18.118;2022-12-18T04:50:28;102399.84;;;-0.71;100.00
26711;BME280;18311;52.754;18.118;2022-12-18T04:52:59;102401.05;;;-0.61;100.00
26711;BME280;18311;52.754;18.118;2022-12-18T04:55:29;102404.99;;;-0.74;100.00
26711;BME280;18311;52.754;18.118;2022-12-18T04:58:00;102407.78;;;-0.69;100.00
26711;BME280;18311;52.754;18.118;2022-12-18T05:00:41;102414.62;;;-0.74;100.00
26711;BME280;18311;52.754;18.118;2022-12-18T05:03:06;102423.95;;;-0.57;100.00
26711;BME280;18311;52.754;18.118;2022-12-18T05:05:38;102427.35;;;-0.60;100.00
26711;BME280;18311;52.754;18.118;2022-12-18T05:08:09;102423.73;;;-0.63;100.00
26711;BME280;18311;52.754;18.118;2022-12-18T05:10:41;102378.13;;;-0.92;100.00
26711;BME280;18311;52.754;18.118;2022-12-18T05:13:15;102429.39;;;-0.78;100.00
26711;BME280;18311;52.754;18.118;2022-12-18T05:15:51;102425.53;;;-0.62;100.00
26711;BME280;18311;52.754;18.118;2022-12-18T05:18:19;102434.78;;;-0.73;100.00
26711;BME280;18311;52.754;18.118;2022-12-18T05:21:08;102435.64;;;-0.74;100.00
26711;BME280;18311;52.754;18.118;2022-12-18T05:23:45;102436.86;;;-1.16;100.00
26711;BME280;18311;52.754;18.118;2022-12-18T05:26:17;102434.02;;;-0.97;100.00
26711;BME280;18311;52.754;18.118;2022-12-18T05:28:48;102439.79;;;-1.07;100.00
26711;BME280;18311;52.754;18.118;2022-12-18T05:31:26;102446.04;;;-1.03;100.00
26711;BME280;18311;52.754;18.118;2022-12-18T05:33:58;102457.19;;;-1.35;100.00
26711;BME280;18311;52.754;18.118;2022-12-18T05:36:28;102464.56;;;-1.24;100.00
26711;BME280;18311;52.754;18.118;2022-12-18T05:38:59;102477.16;;;-1.40;100.00
26711;BME280;18311;52.754;18.118;2022-12-18T05:41:33;102477.75;;;-1.23;100.00
26711;BME280;18311;52.754;18.118;2022-12-18T05:44:04;102485.52;;;-0.76;100.00
26711;BME280;18311;52.754;18.118;2022-12-18T05:46:34;102490.69;;;-1.03;100.00
26711;BME280;18311;52.754;18.118;2022-12-18T05:49:05;102492.30;;;-1.32;100.00
26711;BME280;18311;52.754;18.118;2022-12-18T05:51:45;102498.74;;;-1.47;100.00
26711;BME280;18311;52.754;18.118;2022-12-18T05:54:15;102493.91;;;-1.83;100.00
26711;BME280;18311;52.754;18.118;2022-12-18T05:56:46;102489.16;;;-1.46;100.00
26711;BME280;18311;52.754;18.118;2022-12-18T05:59:17;102500.30;;;-1.52;100.00
26711;BME280;18311;52.754;18.118;2022-12-18T06:01:52;102502.89;;;-1.54;100.00
26711;BME280;18311;52.754;18.118;2022-12-18T06:04:23;102515.90;;;-1.57;100.00
26711;BME280;18311;52.754;18.118;2022-12-18T06:06:53;102516.44;;;-1.65;100.00
26711;BME280;18311;52.754;18.118;2022-12-18T06:09:24;102515.70;;;-1.61;100.00
26711;BME280;18311;52.754;18.118;2022-12-18T06:11:57;102513.47;;;-1.75;100.00
26711;BME280;18311;52.754;18.118;2022-12-18T06:14:31;102516.85;;;-1.77;100.00
26711;BME280;18311;52.754;18.118;2022-12-18T06:17:02;102516.59;;;-1.61;100.00
26711;BME280;18311;52.754;18.118;2022-12-18T06:19:32;102523.17;;;-1.72;100.00
26711;BME280;18311;52.754;18.118;2022-12-18T06:22:11;102535.03;;;-1.82;100.00
26711;BME280;18311;52.754;18.118;2022-12-18T06:24:42;102534.55;;;-1.72;100.00
26711;BME280;18311;52.754;18.118;2022-12-18T06:27:12;102540.80;;;-1.91;100.00
26711;BME280;18311;52.754;18.118;2022-12-18T06:29:43;102537.78;;;-1.79;100.00
26711;BME280;18311;52.754;18.118;2022-12-18T06:32:19;102544.87;;;-1.99;100.00
26711;BME280;18311;52.754;18.118;2022-12-18T06:34:51;102542.34;;;-2.18;100.00
26711;BME280;18311;52.754;18.118;2022-12-18T06:37:23;102536.58;;;-2.10;100.00
26711;BME280;18311;52.754;18.118;2022-12-18T06:40:06;102545.00;;;-1.96;100.00
26711;BME280;18311;52.754;18.118;2022-12-18T06:42:36;102555.17;;;-2.03;100.00
26711;BME280;18311;52.754;18.118;2022-12-18T06:45:08;102555.69;;;-2.12;100.00
26711;BME280;18311;52.754;18.118;2022-12-18T06:47:43;102569.75;;;-2.10;100.00
26711;BME280;18311;52.754;18.118;2022-12-18T06:50:14;102561.63;;;-1.95;100.00
26711;BME280;18311;52.754;18.118;2022-12-18T06:52:45;102562.30;;;-2.22;100.00
26711;BME280;18311;52.754;18.118;2022-12-18T06:55:15;102569.06;;;-2.06;100.00
26711;BME280;18311;52.754;18.118;2022-12-18T06:57:51;102570.60;;;-2.11;100.00
26711;BME280;18311;52.754;18.118;2022-12-18T07:00:23;102580.12;;;-1.92;100.00
26711;BME280;18311;52.754;18.118;2022-12-18T07:03:01;102587.72;;;-1.98;100.00
26711;BME280;18311;52.754;18.118;2022-12-18T07:05:26;102590.16;;;-2.24;100.00
26711;BME280;18311;52.754;18.118;2022-12-18T07:07:59;102597.91;;;-2.06;100.00
26711;BME280;18311;52.754;18.118;2022-12-18T07:10:29;102609.02;;;-2.12;100.00
26711;BME280;18311;52.754;18.118;2022-12-18T07:13:00;102608.57;;;-2.01;100.00
26711;BME280;18311;52.754;18.118;2022-12-18T07:15:30;102613.13;;;-1.97;100.00
26711;BME280;18311;52.754;18.118;2022-12-18T07:18:02;102605.38;;;-2.15;100.00
26711;BME280;18311;52.754;18.118;2022-12-18T07:20:32;102617.90;;;-2.29;100.00
26711;BME280;18311;52.754;18.118;2022-12-18T07:23:05;102618.81;;;-2.29;100.00
26711;BME280;18311;52.754;18.118;2022-12-18T07:25:36;102617.55;;;-2.58;100.00
26711;BME280;18311;52.754;18.118;2022-12-18T07:28:06;102613.91;;;-2.61;100.00
26711;BME280;18311;52.754;18.118;2022-12-18T07:30:39;102616.49;;;-2.42;100.00
26711;BME280;18311;52.754;18.118;2022-12-18T07:33:10;102619.25;;;-2.39;100.00
26711;BME280;18311;52.754;18.118;2022-12-18T07:35:40;102622.02;;;-2.55;100.00
26711;BME280;18311;52.754;18.118;2022-12-18T07:38:11;102621.88;;;-2.39;100.00
26711;BME280;18311;52.754;18.118;2022-12-18T07:40:42;102621.94;;;-2.37;100.00
26711;BME280;18311;52.754;18.118;2022-12-18T07:43:12;102622.44;;;-2.46;100.00
26711;BME280;18311;52.754;18.118;2022-12-18T07:45:43;102627.86;;;-2.41;100.00
26711;BME280;18311;52.754;18.118;2022-12-18T07:48:14;102643.87;;;-2.35;100.00
26711;BME280;18311;52.754;18.118;2022-12-18T07:50:44;102637.49;;;-2.61;100.00
26711;BME280;18311;52.754;18.118;2022-12-18T07:53:15;102640.54;;;-2.31;100.00
26711;BME280;18311;52.754;18.118;2022-12-18T07:55:45;102640.58;;;-2.51;100.00
26711;BME280;18311;52.754;18.118;2022-12-18T07:58:18;102643.87;;;-2.35;100.00
26711;BME280;18311;52.754;18.118;2022-12-18T08:00:49;102656.73;;;-2.80;100.00
26711;BME280;18311;52.754;18.118;2022-12-18T08:03:21;102648.72;;;-2.64;100.00
26711;BME280;18311;52.754;18.118;2022-12-18T08:05:52;102652.81;;;-3.28;100.00
26711;BME280;18311;52.754;18.118;2022-12-18T08:08:22;102654.42;;;-3.12;100.00
26711;BME280;18311;52.754;18.118;2022-12-18T08:10:53;102651.27;;;-3.05;100.00
26711;BME280;18311;52.754;18.118;2022-12-18T08:13:24;102661.63;;;-2.88;100.00
26711;BME280;18311;52.754;18.118;2022-12-18T08:16:04;102661.63;;;-2.88;100.00
26711;BME280;18311;52.754;18.118;2022-12-18T08:18:36;102668.45;;;-2.92;100.00
26711;BME280;18311;52.754;18.118;2022-12-18T08:21:15;102663.81;;;-2.78;100.00
26711;BME280;18311;52.754;18.118;2022-12-18T08:23:50;102666.98;;;-3.42;100.00
26711;BME280;18311;52.754;18.118;2022-12-18T08:26:22;102674.18;;;-3.18;100.00
26711;BME280;18311;52.754;18.118;2022-12-18T08:28:55;102681.84;;;-3.41;100.00
26711;BME280;18311;52.754;18.118;2022-12-18T08:31:27;102689.99;;;-2.97;100.00
26711;BME280;18311;52.754;18.118;2022-12-18T08:34:00;102690.95;;;-3.33;100.00
26711;BME280;18311;52.754;18.118;2022-12-18T08:36:30;102695.28;;;-3.15;100.00
26711;BME280;18311;52.754;18.118;2022-12-18T08:39:01;102703.36;;;-3.29;100.00
26711;BME280;18311;52.754;18.118;2022-12-18T08:41:31;102713.02;;;-3.28;100.00
26711;BME280;18311;52.754;18.118;2022-12-18T08:44:02;102717.81;;;-3.37;100.00
26711;BME280;18311;52.754;18.118;2022-12-18T08:46:51;102716.30;;;-3.14;100.00
26711;BME280;18311;52.754;18.118;2022-12-18T08:49:21;102724.17;;;-3.32;100.00
26711;BME280;18311;52.754;18.118;2022-12-18T08:51:58;102733.85;;;-3.11;100.00
26711;BME280;18311;52.754;18.118;2022-12-18T08:54:28;102739.75;;;-2.97;100.00
26711;BME280;18311;52.754;18.118;2022-12-18T08:56:58;102736.09;;;-3.01;100.00
26711;BME280;18311;52.754;18.118;2022-12-18T08:59:29;102729.84;;;-2.85;100.00
26711;BME280;18311;52.754;18.118;2022-12-18T09:01:59;102735.20;;;-3.01;100.00
26711;BME280;18311;52.754;18.118;2022-12-18T09:04:30;102731.00;;;-2.98;100.00
26711;BME280;18311;52.754;18.118;2022-12-18T09:07:01;102718.95;;;-2.94;100.00
26711;BME280;18311;52.754;18.118;2022-12-18T09:09:31;102713.77;;;-3.48;100.00
26711;BME280;18311;52.754;18.118;2022-12-18T09:12:02;102712.33;;;-3.24;100.00
26711;BME280;18311;52.754;18.118;2022-12-18T09:14:33;102715.33;;;-3.16;100.00
26711;BME280;18311;52.754;18.118;2022-12-18T09:17:03;102713.56;;;-2.97;100.00
26711;BME280;18311;52.754;18.118;2022-12-18T09:19:34;102718.70;;;-2.81;100.00
26711;BME280;18311;52.754;18.118;2022-12-18T09:22:05;102729.09;;;-3.38;100.00
26711;BME280;18311;52.754;18.118;2022-12-18T09:24:35;102711.52;;;-3.58;100.00
26711;BME280;18311;52.754;18.118;2022-12-18T09:27:07;102717.34;;;-3.82;100.00
26711;BME280;18311;52.754;18.118;2022-12-18T09:29:39;102722.66;;;-3.81;100.00
26711;BME280;18311;52.754;18.118;2022-12-18T09:32:09;102713.75;;;-3.84;100.00
26711;BME280;18311;52.754;18.118;2022-12-18T09:34:42;102714.94;;;-3.77;100.00
26711;BME280;18311;52.754;18.118;2022-12-18T09:37:13;102708.20;;;-3.90;100.00
26711;BME280;18311;52.754;18.118;2022-12-18T09:39:45;102692.96;;;-3.81;100.00
26711;BME280;18311;52.754;18.118;2022-12-18T09:42:22;102693.97;;;-3.79;100.00
26711;BME280;18311;52.754;18.118;2022-12-18T09:44:54;102683.66;;;-3.58;100.00
26711;BME280;18311;52.754;18.118;2022-12-18T09:47:36;102684.47;;;-3.59;100.00
26711;BME280;18311;52.754;18.118;2022-12-18T09:50:23;102691.64;;;-3.73;100.00
26711;BME280;18311;52.754;18.118;2022-12-18T09:52:54;102698.20;;;-3.09;100.00
26711;BME280;18311;52.754;18.118;2022-12-18T09:55:34;102681.75;;;-3.43;100.00
26711;BME280;18311;52.754;18.118;2022-12-18T09:58:19;102699.70;;;-3.32;100.00
26711;BME280;18311;52.754;18.118;2022-12-18T10:00:52;102711.14;;;-3.84;100.00
26711;BME280;18311;52.754;18.118;2022-12-18T10:03:22;102707.16;;;-3.94;100.00
26711;BME280;18311;52.754;18.118;2022-12-18T10:14:36;102688.73;;;-3.79;100.00
26711;BME280;18311;52.754;18.118;2022-12-18T10:17:51;102689.88;;;-4.08;100.00
26711;BME280;18311;52.754;18.118;2022-12-18T10:20:32;102685.57;;;-3.36;100.00
26711;BME280;18311;52.754;18.118;2022-12-18T10:28:20;102691.34;;;-3.43;100.00
26711;BME280;18311;52.754;18.118;2022-12-18T10:30:52;102693.52;;;-3.52;100.00
26711;BME280;18311;52.754;18.118;2022-12-18T10:33:27;102691.34;;;-3.43;100.00
26711;BME280;18311;52.754;18.118;2022-12-18T10:35:56;102696.34;;;-3.66;100.00
26711;BME280;18311;52.754;18.118;2022-12-18T10:38:31;102698.23;;;-3.63;100.00
26711;BME280;18311;52.754;18.118;2022-12-18T10:41:04;102697.13;;;-3.13;100.00
26711;BME280;18311;52.754;18.118;2022-12-18T10:43:37;102702.20;;;-3.35;100.00
26711;BME280;18311;52.754;18.118;2022-12-18T10:48:50;102709.66;;;-3.43;100.00
26711;BME280;18311;52.754;18.118;2022-12-18T10:51:31;102711.80;;;-3.16;100.00
26711;BME280;18311;52.754;18.118;2022-12-18T10:54:31;102703.80;;;-2.82;100.00
26711;BME280;18311;52.754;18.118;2022-12-18T11:00:28;102705.80;;;-2.76;100.00
26711;BME280;18311;52.754;18.118;2022-12-18T11:02:59;102714.95;;;-3.24;100.00
26711;BME280;18311;52.754;18.118;2022-12-18T11:05:32;102716.52;;;-3.09;100.00
26711;BME280;18311;52.754;18.118;2022-12-18T11:08:03;102720.00;;;-2.71;100.00
26711;BME280;18311;52.754;18.118;2022-12-18T11:10:36;102720.69;;;-3.13;100.00
26711;BME280;18311;52.754;18.118;2022-12-18T11:13:22;102726.66;;;-2.97;100.00
26711;BME280;18311;52.754;18.118;2022-12-18T11:15:53;102728.06;;;-2.86;100.00
26711;BME280;18311;52.754;18.118;2022-12-18T11:18:32;102737.61;;;-2.69;100.00
26711;BME280;18311;52.754;18.118;2022-12-18T11:21:05;102737.38;;;-2.73;100.00
26711;BME280;18311;52.754;18.118;2022-12-18T11:23:32;102735.47;;;-2.95;100.00
26711;BME280;18311;52.754;18.118;2022-12-18T11:26:04;102727.27;;;-2.66;100.00
26711;BME280;18311;52.754;18.118;2022-12-18T11:28:38;102739.52;;;-2.64;100.00
26711;BME280;18311;52.754;18.118;2022-12-18T11:31:25;102745.39;;;-2.70;100.00
26711;BME280;18311;52.754;18.118;2022-12-18T11:34:03;102734.44;;;-2.61;100.00
26711;BME280;18311;52.754;18.118;2022-12-18T11:36:46;102734.42;;;-2.81;100.00
26711;BME280;18311;52.754;18.118;2022-12-18T11:39:39;102723.64;;;-2.87;100.00
26711;BME280;18311;52.754;18.118;2022-12-18T11:42:42;102727.27;;;-2.66;100.00
26711;BME280;18311;52.754;18.118;2022-12-18T11:50:53;102736.17;;;-2.62;100.00
26711;BME280;18311;52.754;18.118;2022-12-18T11:53:26;102740.45;;;-2.44;100.00
26711;BME280;18311;52.754;18.118;2022-12-18T11:59:00;102735.16;;;-2.83;100.00
26711;BME280;18311;52.754;18.118;2022-12-18T12:01:40;102724.48;;;-2.88;100.00
26711;BME280;18311;52.754;18.118;2022-12-18T12:09:54;102740.15;;;-2.70;100.00
26711;BME280;18311;52.754;18.118;2022-12-18T12:12:36;102743.24;;;-2.79;100.00
26711;BME280;18311;52.754;18.118;2022-12-18T12:15:26;102736.81;;;-2.86;100.00
26711;BME280;18311;52.754;18.118;2022-12-18T12:18:01;102734.50;;;-2.40;100.00
26711;BME280;18311;52.754;18.118;2022-12-18T12:20:49;102733.25;;;-2.68;100.00
26711;BME280;18311;52.754;18.118;2022-12-18T12:23:41;102725.79;;;-2.78;100.00
26711;BME280;18311;52.754;18.118;2022-12-18T12:26:31;102729.16;;;-3.18;100.00
26711;BME280;18311;52.754;18.118;2022-12-18T12:32:25;102730.55;;;-2.70;100.00
26711;BME280;18311;52.754;18.118;2022-12-18T12:35:29;102653.89;;;-3.42;100.00
26711;BME280;18311;52.754;18.118;2022-12-18T12:38:13;102746.56;;;-3.01;100.00
26711;BME280;18311;52.754;18.118;2022-12-18T12:40:51;102753.33;;;-2.69;100.00
26711;BME280;18311;52.754;18.118;2022-12-18T12:46:07;102761.92;;;-2.71;100.00
26711;BME280;18311;52.754;18.118;2022-12-18T12:48:46;102767.28;;;-2.88;100.00
26711;BME280;18311;52.754;18.118;2022-12-18T12:51:25;102783.84;;;-2.69;100.00
26711;BME280;18311;52.754;18.118;2022-12-18T12:53:57;102790.34;;;-2.98;100.00
26711;BME280;18311;52.754;18.118;2022-12-18T13:06:00;102779.68;;;-2.83;100.00
26711;BME280;18311;52.754;18.118;2022-12-18T13:08:50;102795.20;;;-2.31;100.00
26711;BME280;18311;52.754;18.118;2022-12-18T13:11:12;102795.40;;;-2.83;100.00
26711;BME280;18311;52.754;18.118;2022-12-18T13:14:00;102795.78;;;-2.76;100.00
26711;BME280;18311;52.754;18.118;2022-12-18T13:16:31;102796.63;;;-2.95;100.00
26711;BME280;18311;52.754;18.118;2022-12-18T13:19:01;102799.01;;;-2.99;100.00
26711;BME280;18311;52.754;18.118;2022-12-18T13:21:35;102803.33;;;-2.82;100.00
26711;BME280;18311;52.754;18.118;2022-12-18T13:24:28;102798.47;;;-2.92;100.00
26711;BME280;18311;52.754;18.118;2022-12-18T13:26:59;102795.13;;;-2.90;100.00
26711;BME280;18311;52.754;18.118;2022-12-18T13:29:45;102792.64;;;-2.49;100.00
26711;BME280;18311;52.754;18.118;2022-12-18T13:32:26;102784.16;;;-2.43;100.00
26711;BME280;18311;52.754;18.118;2022-12-18T13:37:54;102786.59;;;-2.48;100.00
26711;BME280;18311;52.754;18.118;2022-12-18T13:49:04;102769.95;;;-2.29;100.00
26711;BME280;18311;52.754;18.118;2022-12-18T13:51:44;102764.16;;;-2.41;100.00
26711;BME280;18311;52.754;18.118;2022-12-18T13:54:33;102763.59;;;-2.34;100.00
26711;BME280;18311;52.754;18.118;2022-12-18T13:57:02;102769.38;;;-2.61;100.00
26711;BME280;18311;52.754;18.118;2022-12-18T13:59:39;102772.37;;;-2.34;100.00
26711;BME280;18311;52.754;18.118;2022-12-18T14:02:20;102744.23;;;-2.18;100.00
26711;BME280;18311;52.754;18.118;2022-12-18T14:04:51;102775.63;;;-2.39;100.00
26711;BME280;18311;52.754;18.118;2022-12-18T14:07:24;102785.63;;;-2.11;100.00
26711;BME280;18311;52.754;18.118;2022-12-18T14:09:59;102790.72;;;-2.14;100.00
26711;BME280;18311;52.754;18.118;2022-12-18T14:12:34;102787.20;;;-1.95;100.00
26711;BME280;18311;52.754;18.118;2022-12-18T14:20:43;102794.31;;;-2.32;100.00
26711;BME280;18311;52.754;18.118;2022-12-18T14:23:35;102800.84;;;-2.41;100.00
26711;BME280;18311;52.754;18.118;2022-12-18T14:26:31;102795.83;;;-2.37;100.00
26711;BME280;18311;52.754;18.118;2022-12-18T14:29:00;102793.96;;;-2.00;100.00
26711;BME280;18311;52.754;18.118;2022-12-18T14:31:31;102795.73;;;-1.99;100.00
26711;BME280;18311;52.754;18.118;2022-12-18T14:34:02;102801.47;;;-2.08;100.00
26711;BME280;18311;52.754;18.118;2022-12-18T14:36:34;102800.73;;;-2.25;100.00
26711;BME280;18311;52.754;18.118;2022-12-18T14:39:05;102802.87;;;-2.36;100.00
26711;BME280;18311;52.754;18.118;2022-12-18T14:41:36;102804.17;;;-2.26;100.00
26711;BME280;18311;52.754;18.118;2022-12-18T14:44:10;102807.42;;;-2.32;100.00
26711;BME280;18311;52.754;18.118;2022-12-18T14:46:42;102795.49;;;-2.25;100.00
26711;BME280;18311;52.754;18.118;2022-12-18T14:52:02;102793.98;;;-2.20;100.00
26711;BME280;18311;52.754;18.118;2022-12-18T14:54:39;102802.03;;;-2.15;100.00
26711;BME280;18311;52.754;18.118;2022-12-18T14:57:31;102801.14;;;-2.35;100.00
26711;BME280;18311;52.754;18.118;2022-12-18T15:00:19;102803.35;;;-2.44;100.00